Time;durP1;ratioP1;P1;durP2;ratioP2;P2;SDS_P1;SDS_P2;PMS_P1;PMS_P2;Temp;Humidity;BMP_temperature;BMP_pressure;BME280_temperature;BME280_humidity;BME280_pressure;Samples;Min_cycle;Max_cycle;Signal;HPM_P1;HPM_P2
2023/06/04 00:00:01;;;;;;;3.50;3.20;;;11.60;1.00;;;;;;5119152;28;21009;-59
2023/06/04 00:02:29;;;;;;;4.10;2.97;;;11.60;1.00;;;;;;5118437;28;20519;-59
2023/06/04 00:04:57;;;;;;;3.70;3.40;;;11.60;1.00;;;;;;5118677;28;21096;-59
2023/06/04 00:07:24;;;;;;;3.50;3.10;;;11.50;1.00;;;;;;5119529;28;20459;-59
2023/06/04 00:09:51;;;;;;;3.10;2.80;;;11.50;1.00;;;;;;5119719;28;20459;-59
2023/06/04 00:12:18;;;;;;;2.70;2.50;;;11.50;1.00;;;;;;5119958;28;20460;-59
2023/06/04 00:14:45;;;;;;;3.40;2.37;;;11.40;1.00;;;;;;5120067;27;20460;-59
2023/06/04 00:17:13;;;;;;;3.60;3.17;;;11.40;1.00;;;;;;5120258;28;20467;-59
2023/06/04 00:19:41;;;;;;;3.90;3.50;;;11.30;1.00;;;;;;5118764;28;20889;-60
2023/06/04 00:22:09;;;;;;;3.80;3.27;;;11.20;1.00;;;;;;5119104;28;20550;-58
2023/06/04 00:24:38;;;;;;;4.23;3.83;;;11.10;23.70;;;;;;5119730;28;20892;-59
2023/06/04 00:27:06;;;;;;;3.13;2.93;;;11.10;15.10;;;;;;5120050;28;20463;-59
2023/06/04 00:29:33;;;;;;;4.00;3.57;;;11.10;1.00;;;;;;5119450;28;20477;-59
2023/06/04 00:32:01;;;;;;;4.33;3.30;;;11.10;1.00;;;;;;5119699;28;20899;-59
2023/06/04 00:34:28;;;;;;;3.57;3.27;;;11.00;1.00;;;;;;5118992;28;20463;-59
2023/06/04 00:36:56;;;;;;;3.03;2.73;;;11.00;1.00;;;;;;5119874;28;20434;-59
2023/06/04 00:39:23;;;;;;;4.77;2.97;;;11.00;1.00;;;;;;5119735;28;20460;-59
2023/06/04 00:41:50;;;;;;;2.53;2.33;;;10.90;1.00;;;;;;5118929;28;20465;-58
2023/06/04 00:44:17;;;;;;;3.63;2.33;;;10.90;1.00;;;;;;5119376;28;20459;-59
2023/06/04 00:46:47;;;;;;;3.50;2.70;;;10.90;1.00;;;;;;5119159;28;20459;-58
2023/06/04 00:49:15;;;;;;;5.13;2.90;;;11.00;1.00;;;;;;5119543;28;20466;-59
2023/06/04 00:51:42;;;;;;;3.30;3.00;;;11.00;1.00;;;;;;5118809;28;20426;-58
2023/06/04 00:54:12;;;;;;;3.27;2.70;;;10.90;1.00;;;;;;5118909;28;20555;-58
2023/06/04 00:56:39;;;;;;;3.30;3.00;;;10.90;1.00;;;;;;5119023;28;20463;-59
2023/06/04 00:59:08;;;;;;;3.87;3.47;;;10.80;1.00;;;;;;5118970;28;20471;-59
2023/06/04 01:01:45;;;;;;;4.87;3.70;;;10.70;1.00;;;;;;5118454;28;20488;-58
2023/06/04 01:04:18;;;;;;;3.87;3.50;;;10.60;1.00;;;;;;5119278;28;20491;-59
2023/06/04 01:06:50;;;;;;;5.43;3.20;;;10.60;1.00;;;;;;5118898;28;20466;-59
2023/06/04 01:09:19;;;;;;;4.23;3.83;;;10.60;1.00;;;;;;5118932;28;20470;-59
2023/06/04 01:11:46;;;;;;;6.93;3.67;;;10.60;8.30;;;;;;5118901;28;20963;-59
2023/06/04 01:14:15;;;;;;;4.80;3.57;;;10.50;1.00;;;;;;5118504;28;20459;-59
2023/06/04 01:16:48;;;;;;;4.77;3.93;;;10.50;70.60;;;;;;5118735;27;20566;-58
2023/06/04 01:19:35;;;;;;;5.60;3.53;;;10.50;1.00;;;;;;5118735;28;20499;-58
2023/06/04 01:22:16;;;;;;;3.90;3.20;;;10.50;1.00;;;;;;5118938;28;20516;-59
2023/06/04 01:24:51;;;;;;;3.13;2.83;;;10.50;1.00;;;;;;5118996;28;20508;-59
2023/06/04 01:27:19;;;;;;;5.53;3.87;;;10.40;1.00;;;;;;5118546;28;20459;-58
2023/06/04 01:29:49;;;;;;;3.23;2.87;;;10.50;36.10;;;;;;5118398;28;20494;-58
2023/06/04 01:32:16;;;;;;;4.70;3.43;;;10.50;99.90;;;;;;5117235;28;20460;-58
2023/06/04 01:34:47;;;;;;;4.20;3.00;;;10.50;7.20;;;;;;5118419;28;20455;-58
2023/06/04 01:37:16;;;;;;;4.03;3.07;;;10.50;55.00;;;;;;5118661;28;20459;-59
2023/06/04 01:39:45;;;;;;;3.97;2.83;;;10.40;1.00;;;;;;5117931;28;20571;-58
2023/06/04 01:42:12;;;;;;;3.90;3.30;;;10.40;1.00;;;;;;5118237;28;20788;-58
2023/06/04 01:44:39;;;;;;;3.13;2.83;;;10.40;1.00;;;;;;5118085;28;20459;-59
2023/06/04 01:47:06;;;;;;;3.50;3.20;;;10.40;9.20;;;;;;5118200;28;20462;-59
2023/06/04 01:49:33;;;;;;;3.00;2.70;;;10.40;25.60;;;;;;5117660;28;20471;-58
2023/06/04 01:52:00;;;;;;;3.17;2.40;;;10.30;1.00;;;;;;5117795;28;20455;-58
2023/06/04 01:54:29;;;;;;;4.27;3.00;;;10.30;1.00;;;;;;5117849;28;20463;-59
2023/06/04 01:56:58;;;;;;;4.20;3.37;;;10.30;44.30;;;;;;5117603;28;20459;-58
2023/06/04 01:59:25;;;;;;;4.80;3.23;;;10.30;1.00;;;;;;5118409;28;21739;-59
2023/06/04 02:01:52;;;;;;;4.80;2.90;;;10.30;1.00;;;;;;5117803;28;20522;-59
2023/06/04 02:04:21;;;;;;;2.97;2.73;;;10.30;99.90;;;;;;5117781;28;20900;-58
2023/06/04 02:06:48;;;;;;;3.30;2.90;;;10.40;1.00;;;;;;5118150;28;20509;-58
2023/06/04 02:09:15;;;;;;;4.10;3.40;;;10.40;1.00;;;;;;5118217;28;20468;-58
2023/06/04 02:11:42;;;;;;;3.33;3.03;;;10.40;1.00;;;;;;5117572;28;20489;-58
2023/06/04 02:14:11;;;;;;;4.87;3.53;;;10.40;99.90;;;;;;5117498;28;20557;-58
2023/06/04 02:16:38;;;;;;;3.70;3.17;;;10.30;59.40;;;;;;5117933;28;20495;-59
2023/06/04 02:19:06;;;;;;;3.63;3.23;;;10.30;99.90;;;;;;5117730;28;20459;-59
2023/06/04 02:21:33;;;;;;;4.43;3.10;;;10.20;7.40;;;;;;5117614;28;20585;-58
2023/06/04 02:24:00;;;;;;;4.43;2.97;;;10.20;1.00;;;;;;5117653;28;20566;-58
2023/06/04 02:26:27;;;;;;;4.47;3.23;;;10.20;10.70;;;;;;5117706;28;20464;-58
2023/06/04 02:28:55;;;;;;;3.83;3.43;;;10.10;1.00;;;;;;5117731;28;20482;-58
2023/06/04 02:31:23;;;;;;;4.63;3.20;;;10.00;1.00;;;;;;5117659;28;20466;-58
2023/06/04 02:33:50;;;;;;;3.77;3.47;;;10.00;1.00;;;;;;5117902;28;20459;-58
2023/06/04 02:36:18;;;;;;;3.90;3.50;;;9.90;1.00;;;;;;5117358;28;20462;-57
2023/06/04 02:38:45;;;;;;;4.13;3.10;;;9.90;1.00;;;;;;5117253;28;20459;-58
2023/06/04 02:41:12;;;;;;;3.90;3.20;;;9.80;1.00;;;;;;5117447;28;20491;-59
2023/06/04 02:43:40;;;;;;;4.50;3.67;;;9.80;1.00;;;;;;5120072;28;20951;-59
2023/06/04 02:46:07;;;;;;;5.33;3.50;;;9.80;1.00;;;;;;5121653;28;20558;-58
2023/06/04 02:48:35;;;;;;;3.53;3.20;;;9.80;1.00;;;;;;5121584;28;20906;-58
2023/06/04 02:51:04;;;;;;;4.87;3.33;;;9.80;1.00;;;;;;5122038;28;20724;-58
2023/06/04 02:53:33;;;;;;;4.00;3.40;;;9.80;1.00;;;;;;5121536;28;20812;-58
2023/06/04 02:56:00;;;;;;;3.63;3.07;;;9.70;1.00;;;;;;5121194;28;20459;-58
2023/06/04 02:58:28;;;;;;;4.63;3.87;;;9.70;1.00;;;;;;5121304;28;20459;-57
2023/06/04 03:00:56;;;;;;;4.77;3.50;;;9.60;1.00;;;;;;5121367;28;20487;-58
2023/06/04 03:03:23;;;;;;;4.40;3.60;;;9.50;65.20;;;;;;5121307;28;20483;-58
2023/06/04 03:05:52;;;;;;;5.00;3.07;;;9.50;73.80;;;;;;5120893;28;20470;-58
2023/06/04 03:08:19;;;;;;;5.13;3.47;;;9.50;25.00;;;;;;5121301;28;20495;-58
2023/06/04 03:10:47;;;;;;;5.90;3.37;;;9.50;20.60;;;;;;5121153;28;20459;-58
2023/06/04 03:13:15;;;;;;;3.70;3.13;;;9.50;33.40;;;;;;5121234;28;20503;-58
2023/06/04 03:15:42;;;;;;;4.80;3.90;;;9.40;13.10;;;;;;5121293;28;20495;-58
2023/06/04 03:18:09;;;;;;;4.00;3.30;;;9.30;29.60;;;;;;5121208;28;20463;-58
2023/06/04 03:20:37;;;;;;;3.90;3.43;;;9.30;99.90;;;;;;5120888;28;20469;-58
2023/06/04 03:23:06;;;;;;;3.57;3.27;;;9.30;1.00;;;;;;5121118;28;20512;-58
2023/06/04 03:25:33;;;;;;;3.87;3.47;;;9.20;1.00;;;;;;5120720;28;20486;-58
2023/06/04 03:28:00;;;;;;;3.93;3.20;;;9.20;99.90;;;;;;5120517;28;20462;-59
2023/06/04 03:30:28;;;;;;;4.03;3.33;;;9.20;99.90;;;;;;5120674;28;20454;-58
2023/06/04 03:32:55;;;;;;;3.57;3.27;;;9.10;99.90;;;;;;5121026;28;20462;-59
2023/06/04 03:35:22;;;;;;;4.17;3.37;;;9.00;99.90;;;;;;5120825;28;20758;-59
2023/06/04 03:37:49;;;;;;;3.83;3.00;;;9.00;28.10;;;;;;5120365;28;20491;-58
2023/06/04 03:40:18;;;;;;;3.30;3.00;;;9.00;18.80;;;;;;5120649;28;20463;-58
2023/06/04 03:42:45;;;;;;;4.40;3.60;;;9.00;19.90;;;;;;5120692;27;20491;-59
2023/06/04 03:45:12;;;;;;;4.83;3.27;;;9.10;2.80;;;;;;5120127;28;20896;-58
2023/06/04 03:47:40;;;;;;;6.20;3.40;;;9.10;57.30;;;;;;5120377;28;20463;-58
2023/06/04 03:50:07;;;;;;;7.10;3.50;;;9.10;12.20;;;;;;5120449;28;20469;-59
2023/06/04 03:52:35;;;;;;;5.43;3.20;;;9.10;7.50;;;;;;5099934;28;20460;-58
2023/06/04 03:55:03;;;;;;;4.07;3.50;;;9.10;1.00;;;;;;5098939;28;20901;-58
2023/06/04 03:57:32;;;;;;;6.50;3.50;;;9.10;1.00;;;;;;5099820;28;20448;-58
2023/06/04 04:00:00;;;;;;;5.00;3.00;;;9.10;1.00;;;;;;5099696;28;20896;-58
2023/06/04 04:02:27;;;;;;;3.37;3.07;;;9.10;1.00;;;;;;5099777;28;20585;-58
2023/06/04 04:04:56;;;;;;;7.40;3.60;;;9.20;1.00;;;;;;5099779;28;20894;-58
2023/06/04 04:07:24;;;;;;;3.30;2.97;;;9.20;1.00;;;;;;5099725;28;20465;-58
2023/06/04 04:09:52;;;;;;;5.30;3.63;;;9.10;1.00;;;;;;5099449;28;20460;-58
2023/06/04 04:12:19;;;;;;;5.17;3.60;;;9.10;1.00;;;;;;5099655;28;20547;-58
2023/06/04 04:14:47;;;;;;;4.07;3.67;;;9.10;1.00;;;;;;5099149;28;20461;-58
2023/06/04 04:17:15;;;;;;;4.50;3.37;;;9.20;1.00;;;;;;5099751;28;20878;-58
2023/06/04 04:19:42;;;;;;;5.87;3.97;;;9.20;1.00;;;;;;5099015;28;20567;-59
2023/06/04 04:22:11;;;;;;;3.93;3.53;;;9.20;1.00;;;;;;5099376;28;20980;-58
2023/06/04 04:24:39;;;;;;;4.70;3.80;;;9.30;1.00;;;;;;5099600;28;20468;-58
2023/06/04 04:27:10;;;;;;;6.70;3.90;;;9.30;99.90;;;;;;5099412;28;20472;-59
2023/06/04 04:29:38;;;;;;;6.47;4.57;;;9.40;1.00;;;;;;5098706;28;20517;-58
2023/06/04 04:32:10;;;;;;;4.97;3.87;;;9.40;1.00;;;;;;5098886;28;20456;-58
2023/06/04 04:34:39;;;;;;;4.60;3.90;;;9.50;1.00;;;;;;5098691;28;20517;-58
2023/06/04 04:37:08;;;;;;;6.43;3.73;;;9.60;1.00;;;;;;5099447;28;20527;-59
2023/06/04 04:39:36;;;;;;;5.00;3.80;;;9.60;1.00;;;;;;5098634;28;20461;-58
2023/06/04 04:42:04;;;;;;;5.73;3.67;;;9.60;1.00;;;;;;5099115;28;20488;-59
2023/06/04 04:44:31;;;;;;;5.13;3.40;;;9.70;1.00;;;;;;5099246;28;20496;-58
2023/06/04 04:46:58;;;;;;;5.27;4.17;;;9.80;1.00;;;;;;5099250;28;20482;-58
2023/06/04 04:49:27;;;;;;;4.77;3.50;;;9.80;1.00;;;;;;5099102;28;20468;-58
2023/06/04 04:51:54;;;;;;;3.90;3.50;;;9.90;1.00;;;;;;5098667;28;20754;-58
2023/06/04 04:54:21;;;;;;;4.83;3.20;;;10.00;1.00;;;;;;5098508;28;20471;-59
2023/06/04 04:56:48;;;;;;;4.67;3.20;;;10.10;1.00;;;;;;5098622;28;20467;-58
2023/06/04 04:59:16;;;;;;;3.20;2.90;;;10.20;6.50;;;;;;5098672;28;20461;-58
2023/06/04 05:01:43;;;;;;;5.13;3.67;;;10.30;1.00;;;;;;5098421;28;20499;-59
2023/06/04 05:04:10;;;;;;;3.70;2.87;;;10.40;1.00;;;;;;5098454;28;20470;-59
2023/06/04 05:06:39;;;;;;;3.33;3.03;;;10.50;1.00;;;;;;5098314;28;20478;-58
2023/06/04 05:09:07;;;;;;;4.07;3.40;;;10.60;1.00;;;;;;5098530;28;20897;-59
2023/06/04 05:11:35;;;;;;;3.17;2.70;;;10.60;1.00;;;;;;5114372;28;20480;-58
2023/06/04 05:14:02;;;;;;;3.77;3.00;;;10.80;1.00;;;;;;5118947;28;20489;-58
2023/06/04 05:16:30;;;;;;;4.73;3.10;;;10.90;1.00;;;;;;5118580;28;20456;-59
2023/06/04 05:18:57;;;;;;;4.43;3.93;;;10.90;1.00;;;;;;5118713;28;20554;-58
2023/06/04 05:21:24;;;;;;;4.10;3.53;;;11.10;1.00;;;;;;5118199;28;20463;-59
2023/06/04 05:23:53;;;;;;;3.30;3.00;;;11.20;1.00;;;;;;5118732;28;20501;-59
2023/06/04 05:26:23;;;;;;;3.50;3.20;;;11.40;1.00;;;;;;5118309;28;20554;-58
2023/06/04 05:28:50;;;;;;;4.63;3.10;;;11.50;1.00;;;;;;5118518;28;20463;-59
2023/06/04 05:31:18;;;;;;;3.50;3.20;;;11.60;1.00;;;;;;5118772;28;20460;-58
2023/06/04 05:33:45;;;;;;;5.80;3.17;;;11.70;1.00;;;;;;5118479;28;20558;-59
2023/06/04 05:36:12;;;;;;;4.47;3.10;;;11.90;1.00;;;;;;5118277;28;20912;-58
2023/06/04 05:38:39;;;;;;;3.00;2.60;;;12.10;1.00;;;;;;5118285;28;20459;-59
2023/06/04 05:41:08;;;;;;;4.20;3.10;;;12.30;99.90;;;;;;5118262;28;20477;-59
2023/06/04 05:43:35;;;;;;;3.83;3.50;;;12.60;37.60;;;;;;5118192;28;20509;-58
2023/06/04 05:46:02;;;;;;;4.97;3.37;;;12.90;96.60;;;;;;5117849;28;20767;-59
2023/06/04 05:48:30;;;;;;;3.87;3.10;;;13.10;99.90;;;;;;5117623;28;20456;-59
2023/06/04 05:50:57;;;;;;;3.93;3.23;;;13.40;99.90;;;;;;5117670;28;20456;-59
2023/06/04 05:53:24;;;;;;;3.20;2.90;;;13.70;99.90;;;;;;5117259;28;20447;-59
2023/06/04 05:55:51;;;;;;;4.60;3.30;;;14.10;1.00;;;;;;5116845;28;20459;-59
2023/06/04 05:58:19;;;;;;;3.33;3.03;;;14.40;1.00;;;;;;5117333;28;20462;-59
2023/06/04 06:00:48;;;;;;;3.80;3.00;;;14.60;1.00;;;;;;5118286;28;20483;-60
2023/06/04 06:03:16;;;;;;;3.83;2.70;;;14.80;50.20;;;;;;5117633;28;20500;-61
2023/06/04 06:05:44;;;;;;;3.40;3.00;;;15.10;99.90;;;;;;5117302;28;20918;-61
2023/06/04 06:08:11;;;;;;;3.23;2.70;;;15.30;44.70;;;;;;5116988;28;20893;-61
2023/06/04 06:10:38;;;;;;;5.70;3.13;;;15.60;99.90;;;;;;5116963;28;20458;-60
2023/06/04 06:13:05;;;;;;;3.30;3.00;;;15.90;99.90;;;;;;5116948;28;20451;-61
2023/06/04 06:15:34;;;;;;;3.03;2.83;;;16.10;99.90;;;;;;5116734;28;20471;-61
2023/06/04 06:18:01;;;;;;;4.13;2.80;;;16.30;99.90;;;;;;5116359;28;20451;-62
2023/06/04 06:20:29;;;;;;;4.97;2.70;;;16.50;99.90;;;;;;5117058;28;20544;-60
2023/06/04 06:22:56;;;;;;;4.30;2.90;;;16.80;99.90;;;;;;5113831;28;20853;-61
2023/06/04 06:25:23;;;;;;;2.93;2.73;;;17.00;99.90;;;;;;5117131;28;20451;-61
2023/06/04 06:27:51;;;;;;;4.40;3.20;;;17.20;99.90;;;;;;5117799;28;20505;-61
2023/06/04 06:30:18;;;;;;;2.43;2.20;;;17.30;1.00;;;;;;5117303;28;20524;-62
2023/06/04 06:32:48;;;;;;;3.73;2.63;;;17.60;99.90;;;;;;5111459;28;20552;-63
2023/06/04 06:35:15;;;;;;;2.97;2.77;;;17.40;99.90;;;;;;5116371;28;20884;-62
2023/06/04 06:37:43;;;;;;;3.10;2.60;;;17.60;99.90;;;;;;5117409;28;20481;-60
2023/06/04 06:40:10;;;;;;;2.80;2.60;;;17.80;99.90;;;;;;5117301;28;20892;-60
2023/06/04 06:42:37;;;;;;;3.50;3.00;;;17.90;99.90;;;;;;5116592;28;20516;-61
2023/06/04 06:45:06;;;;;;;4.07;3.27;;;17.80;99.90;;;;;;5114552;28;20456;-60
2023/06/04 06:47:33;;;;;;;3.73;3.40;;;18.10;99.90;;;;;;5117348;28;20463;-61
2023/06/04 06:50:02;;;;;;;3.27;2.50;;;18.40;99.90;;;;;;5117418;28;20821;-61
2023/06/04 06:52:30;;;;;;;3.30;3.00;;;18.50;99.90;;;;;;5117790;28;20881;-60
2023/06/04 06:54:57;;;;;;;3.17;2.80;;;18.60;1.00;;;;;;5117842;28;20464;-60
2023/06/04 06:57:24;;;;;;;3.90;3.13;;;18.70;99.90;;;;;;5117522;28;20469;-60
2023/06/04 06:59:53;;;;;;;4.13;3.07;;;18.80;1.00;;;;;;5117194;28;20463;-60
2023/06/04 07:02:20;;;;;;;4.70;3.03;;;19.00;99.90;;;;;;5117017;28;20590;-62
2023/06/04 07:04:48;;;;;;;3.53;3.23;;;19.20;99.90;;;;;;5117508;28;20460;-60
2023/06/04 07:07:17;;;;;;;3.23;2.93;;;19.20;1.00;;;;;;5117670;28;20558;-61
2023/06/04 07:09:44;;;;;;;3.50;3.20;;;19.50;1.00;;;;;;5116969;28;20463;-60
2023/06/04 07:12:11;;;;;;;3.50;3.20;;;19.60;1.00;;;;;;5117132;28;20455;-60
2023/06/04 07:14:38;;;;;;;3.43;3.13;;;19.90;1.00;;;;;;5117572;28;20459;-60
2023/06/04 07:17:05;;;;;;;10.53;3.90;;;20.00;1.00;;;;;;5117389;28;20469;-59
2023/06/04 07:19:32;;;;;;;3.63;3.33;;;20.20;1.00;;;;;;5116839;28;20455;-61
2023/06/04 07:21:59;;;;;;;4.20;3.20;;;20.20;1.00;;;;;;5117142;28;20460;-61
2023/06/04 07:24:28;;;;;;;4.03;3.63;;;20.30;1.00;;;;;;5116510;28;20459;-61
2023/06/04 07:26:55;;;;;;;4.40;3.57;;;20.40;1.00;;;;;;5113978;28;20459;-59
2023/06/04 07:29:22;;;;;;;3.70;3.40;;;20.70;1.00;;;;;;5118491;28;20455;-59
2023/06/04 07:31:49;;;;;;;4.17;3.77;;;21.00;1.00;;;;;;5120954;28;20465;-61
2023/06/04 07:34:16;;;;;;;5.20;3.47;;;21.20;1.00;;;;;;5120970;28;20880;-62
2023/06/04 07:36:44;;;;;;;4.20;3.90;;;21.10;60.50;;;;;;5120240;28;20463;-61
2023/06/04 07:39:11;;;;;;;3.53;3.23;;;21.10;1.00;;;;;;5120966;28;20550;-62
2023/06/04 07:41:39;;;;;;;4.53;4.23;;;21.30;1.00;;;;;;5120340;28;20545;-59
2023/06/04 07:44:07;;;;;;;4.10;3.80;;;21.60;9.00;;;;;;5120568;28;20563;-61
2023/06/04 07:46:34;;;;;;;4.43;4.03;;;21.80;1.00;;;;;;5120901;28;20459;-61
2023/06/04 07:49:01;;;;;;;4.23;3.83;;;22.00;1.00;;;;;;5121119;28;20459;-60
2023/06/04 07:51:28;;;;;;;4.57;3.70;;;22.00;43.70;;;;;;5121232;28;20940;-60
2023/06/04 07:53:55;;;;;;;5.40;4.00;;;22.40;1.00;;;;;;5120369;28;20452;-61
2023/06/04 07:56:22;;;;;;;3.80;3.50;;;22.40;24.20;;;;;;5120760;28;20876;-60
2023/06/04 07:58:51;;;;;;;6.10;4.03;;;22.60;99.90;;;;;;5120695;28;20470;-60
2023/06/04 08:01:18;;;;;;;4.43;4.03;;;22.60;99.90;;;;;;5120789;28;20464;-58
2023/06/04 08:03:45;;;;;;;4.50;4.10;;;22.80;99.90;;;;;;5120703;28;20587;-61
2023/06/04 08:06:14;;;;;;;3.83;3.53;;;23.00;99.90;;;;;;5120406;28;20463;-60
2023/06/04 08:08:45;;;;;;;4.23;3.57;;;22.90;99.90;;;;;;5120625;28;20459;-62
2023/06/04 08:11:12;;;;;;;4.17;3.57;;;23.10;99.90;;;;;;5120649;27;20828;-60
2023/06/04 08:13:41;;;;;;;4.90;4.40;;;23.50;99.90;;;;;;5119634;28;20460;-61
2023/06/04 08:16:10;;;;;;;4.40;4.00;;;23.40;99.90;;;;;;5120149;28;20463;-60
2023/06/04 08:18:39;;;;;;;3.83;3.43;;;23.10;99.90;;;;;;5120426;28;20495;-59
2023/06/04 08:21:06;;;;;;;4.70;4.27;;;23.00;99.90;;;;;;5120503;28;20467;-59
2023/06/04 08:23:34;;;;;;;4.60;4.07;;;23.30;99.90;;;;;;5119646;28;20513;-61
2023/06/04 08:26:01;;;;;;;4.10;3.80;;;23.60;99.90;;;;;;5117610;28;20767;-62
2023/06/04 08:28:28;;;;;;;4.47;4.17;;;23.60;99.90;;;;;;5114060;28;20467;-59
2023/06/04 08:30:55;;;;;;;6.07;4.53;;;23.20;99.90;;;;;;5118306;28;20455;-61
2023/06/04 08:33:24;;;;;;;5.83;4.50;;;23.30;99.90;;;;;;5118683;28;20452;-61
2023/06/04 08:35:51;;;;;;;4.13;3.83;;;23.20;99.90;;;;;;5117615;28;20451;-61
2023/06/04 08:38:18;;;;;;;3.43;3.13;;;23.70;99.90;;;;;;5117546;28;20546;-61
2023/06/04 08:40:49;;;;;;;4.07;3.77;;;24.10;99.90;;;;;;5117795;28;20850;-61
2023/06/04 08:43:16;;;;;;;4.80;4.40;;;24.10;99.90;;;;;;5118254;28;20487;-62
2023/06/04 08:45:50;;;;;;;4.13;3.83;;;24.40;99.90;;;;;;5117614;28;20459;-61
2023/06/04 08:48:22;;;;;;;4.57;4.20;;;24.10;99.90;;;;;;5115055;28;20463;-59
2023/06/04 08:50:52;;;;;;;4.80;3.63;;;24.20;99.90;;;;;;5119541;28;20900;-60
2023/06/04 08:53:19;;;;;;;3.77;3.47;;;24.30;99.90;;;;;;5118157;28;20456;-61
2023/06/04 08:55:50;;;;;;;6.00;4.13;;;24.40;99.90;;;;;;5115768;28;20742;-60
2023/06/04 08:58:19;;;;;;;3.90;3.50;;;24.40;99.90;;;;;;5113474;28;20512;-59
2023/06/04 09:00:46;;;;;;;4.20;3.40;;;24.80;99.90;;;;;;5111629;28;20471;-60
2023/06/04 09:03:16;;;;;;;4.03;3.73;;;24.90;99.90;;;;;;5114863;28;21181;-61
2023/06/04 09:05:47;;;;;;;4.27;3.57;;;24.40;99.90;;;;;;5099449;28;20473;-62
2023/06/04 09:08:19;;;;;;;3.70;3.40;;;24.50;99.90;;;;;;5095986;28;20801;-62
2023/06/04 09:10:49;;;;;;;4.60;3.47;;;24.40;99.90;;;;;;5097952;28;20456;-61
2023/06/04 09:13:18;;;;;;;3.63;3.33;;;24.80;99.90;;;;;;5098123;28;20457;-61
2023/06/04 09:15:45;;;;;;;4.33;3.83;;;25.20;99.90;;;;;;5098041;28;20492;-59
2023/06/04 09:18:13;;;;;;;4.43;4.13;;;25.00;1.00;;;;;;5113434;28;20552;-59
2023/06/04 09:20:40;;;;;;;5.10;3.93;;;24.50;99.90;;;;;;5118325;28;20888;-60
2023/06/04 09:23:17;;;;;;;4.53;3.90;;;24.90;99.90;;;;;;5118376;28;20497;-60
2023/06/04 09:25:44;;;;;;;5.30;3.80;;;25.20;99.90;;;;;;5117969;28;20459;-61
2023/06/04 09:28:12;;;;;;;3.23;3.00;;;25.50;99.90;;;;;;5118424;28;20892;-60
2023/06/04 09:30:39;;;;;;;3.80;3.40;;;25.70;1.00;;;;;;5118763;28;20459;-60
2023/06/04 09:33:10;;;;;;;4.53;3.40;;;25.70;99.90;;;;;;5118726;28;20462;-58
2023/06/04 09:35:37;;;;;;;4.27;3.83;;;26.10;1.00;;;;;;5117508;28;20458;-59
2023/06/04 09:38:07;;;;;;;3.53;3.23;;;25.80;1.00;;;;;;5117517;28;20469;-62
2023/06/04 09:40:39;;;;;;;3.50;3.30;;;25.50;1.00;;;;;;5117698;28;20789;-59
2023/06/04 09:43:07;;;;;;;7.83;3.90;;;25.60;1.00;;;;;;5118028;27;20494;-61
2023/06/04 09:45:36;;;;;;;5.40;4.07;;;25.60;1.00;;;;;;5112035;28;20466;-61
2023/06/04 09:48:05;;;;;;;4.87;3.60;;;25.50;1.00;;;;;;5117560;28;20762;-61
2023/06/04 09:50:33;;;;;;;4.50;4.10;;;24.90;99.90;;;;;;5115857;28;20778;-61
2023/06/04 09:53:02;;;;;;;4.53;3.10;;;25.00;1.00;;;;;;5113896;28;20988;-60
2023/06/04 09:55:29;;;;;;;4.53;3.57;;;25.80;1.00;;;;;;5114618;28;20550;-60
2023/06/04 09:58:00;;;;;;;4.23;3.93;;;26.40;99.90;;;;;;5114857;28;20455;-61
2023/06/04 10:00:28;;;;;;;6.07;3.90;;;26.20;1.00;;;;;;5114856;28;20752;-59
2023/06/04 10:02:58;;;;;;;5.83;3.17;;;27.00;1.00;;;;;;5115106;28;20943;-63
2023/06/04 10:05:26;;;;;;;4.20;3.57;;;26.80;99.90;;;;;;5113784;28;20528;-58
2023/06/04 10:07:55;;;;;;;4.10;3.80;;;27.20;1.00;;;;;;5113493;28;20550;-60
2023/06/04 10:10:26;;;;;;;3.97;3.67;;;27.40;1.00;;;;;;5114344;28;20932;-60
2023/06/04 10:13:02;;;;;;;3.90;3.50;;;26.50;1.00;;;;;;5114439;28;20910;-60
2023/06/04 10:15:32;;;;;;;4.07;3.77;;;25.60;1.00;;;;;;5116119;28;20744;-61
2023/06/04 10:18:00;;;;;;;3.93;3.63;;;25.50;1.00;;;;;;5116260;28;20459;-62
2023/06/04 10:20:27;;;;;;;3.50;3.30;;;26.00;1.00;;;;;;5115935;28;20459;-59
2023/06/04 10:22:56;;;;;;;3.70;3.40;;;25.50;1.00;;;;;;5116554;28;20587;-59
2023/06/04 10:25:23;;;;;;;4.27;3.97;;;24.80;1.00;;;;;;5116501;28;20459;-59
2023/06/04 10:27:53;;;;;;;4.07;3.77;;;25.30;1.00;;;;;;5116737;28;20880;-58
2023/06/04 10:30:22;;;;;;;3.77;3.47;;;26.10;1.00;;;;;;5116261;28;20456;-59
2023/06/04 10:32:49;;;;;;;3.77;3.47;;;26.80;1.00;;;;;;5116690;28;20466;-58
2023/06/04 10:35:16;;;;;;;3.90;3.60;;;27.30;1.00;;;;;;5116654;28;20563;-59
2023/06/04 10:37:45;;;;;;;4.60;3.33;;;27.40;1.00;;;;;;5114458;28;20893;-59
2023/06/04 10:40:13;;;;;;;4.07;3.67;;;27.70;1.00;;;;;;5116272;28;20558;-58
2023/06/04 10:42:42;;;;;;;3.63;3.30;;;27.10;1.00;;;;;;5101512;28;20472;-59
2023/06/04 10:45:10;;;;;;;4.73;3.83;;;27.70;1.00;;;;;;5116866;28;20823;-59
2023/06/04 10:47:40;;;;;;;4.30;3.90;;;27.00;1.00;;;;;;5114228;28;20944;-61
2023/06/04 10:50:10;;;;;;;5.00;4.60;;;26.40;1.00;;;;;;5114193;28;20463;-59
2023/06/04 10:52:37;;;;;;;5.23;4.37;;;26.90;1.00;;;;;;5114816;28;20466;-60
2023/06/04 10:55:06;;;;;;;4.53;3.83;;;27.20;1.00;;;;;;5114408;28;20552;-61
2023/06/04 10:57:33;;;;;;;6.50;4.30;;;26.10;1.00;;;;;;5115444;28;20550;-58
2023/06/04 11:00:03;;;;;;;4.40;3.83;;;26.40;1.00;;;;;;5115854;28;20562;-60
2023/06/04 11:02:30;;;;;;;4.03;3.73;;;26.00;99.90;;;;;;5115731;28;20479;-53
2023/06/04 11:05:05;;;;;;;4.30;3.90;;;26.50;1.00;;;;;;5119559;28;20509;-60
2023/06/04 11:07:43;;;;;;;3.47;3.27;;;27.40;99.90;;;;;;5121191;28;20795;-60
2023/06/04 11:10:11;;;;;;;4.63;4.03;;;27.70;1.00;;;;;;5121663;28;20508;-57
2023/06/04 11:12:46;;;;;;;3.90;3.50;;;26.90;1.00;;;;;;5121343;28;20540;-56
2023/06/04 11:15:13;;;;;;;4.77;4.23;;;27.60;1.00;;;;;;5117568;28;20446;-57
2023/06/04 11:17:53;;;;;;;4.73;4.23;;;27.90;1.00;;;;;;5120205;28;20534;-58
2023/06/04 11:20:23;;;;;;;4.67;3.50;;;28.00;1.00;;;;;;5121005;28;20876;-59
2023/06/04 11:22:55;;;;;;;4.53;4.13;;;28.10;1.00;;;;;;5119101;28;20459;-58
2023/06/04 11:25:23;;;;;;;10.47;4.77;;;28.00;1.00;;;;;;5120546;28;21001;-58
2023/06/04 11:27:51;;;;;;;4.10;3.70;;;28.30;1.00;;;;;;5120057;28;20451;-58
2023/06/04 11:30:18;;;;;;;4.60;4.30;;;27.90;1.00;;;;;;5117990;28;20495;-57
2023/06/04 11:32:45;;;;;;;4.13;3.80;;;28.20;1.00;;;;;;5119621;28;20451;-59
2023/06/04 11:35:12;;;;;;;5.43;3.60;;;27.80;1.00;;;;;;5119013;28;20451;-59
2023/06/04 11:37:41;;;;;;;3.83;3.53;;;28.00;1.00;;;;;;5119460;28;20447;-58
2023/06/04 11:40:18;;;;;;;5.03;4.20;;;28.40;1.00;;;;;;5119984;28;20455;-58
2023/06/04 11:42:46;;;;;;;5.03;3.93;;;29.00;1.00;;;;;;5120395;28;20459;-58
2023/06/04 11:45:14;;;;;;;4.27;3.97;;;29.30;1.00;;;;;;5118928;28;20486;-59
2023/06/04 11:47:45;;;;;;;3.97;3.67;;;29.10;1.00;;;;;;5107244;27;20464;-59
2023/06/04 11:50:13;;;;;;;5.23;3.40;;;29.00;1.00;;;;;;5098233;28;20462;-60
2023/06/04 11:52:41;;;;;;;5.10;3.87;;;29.00;1.00;;;;;;5097440;28;20463;-58
2023/06/04 11:55:10;;;;;;;3.90;3.30;;;27.70;1.00;;;;;;5114947;28;20458;-58
2023/06/04 11:57:38;;;;;;;4.07;3.77;;;27.80;1.00;;;;;;5118404;28;20512;-60
2023/06/04 12:00:09;;;;;;;5.23;3.63;;;28.20;1.00;;;;;;5118388;28;20466;-59
2023/06/04 12:02:37;;;;;;;3.73;3.43;;;28.90;1.00;;;;;;5119825;28;20564;-59
2023/06/04 12:05:14;;;;;;;4.23;3.90;;;29.50;1.00;;;;;;5118779;28;20490;-59
2023/06/04 12:07:43;;;;;;;6.40;3.50;;;29.00;1.00;;;;;;5117130;28;20887;-59
2023/06/04 12:10:11;;;;;;;4.10;3.70;;;28.80;1.00;;;;;;5115156;28;21084;-62
2023/06/04 12:12:40;;;;;;;4.00;3.70;;;29.10;1.00;;;;;;5106904;28;20464;-60
2023/06/04 12:15:09;;;;;;;4.13;3.77;;;28.90;1.00;;;;;;5101072;28;20479;-58
2023/06/04 12:17:37;;;;;;;4.40;4.10;;;29.00;1.00;;;;;;5116605;28;20463;-61
2023/06/04 12:20:05;;;;;;;3.47;3.27;;;29.20;1.00;;;;;;5102336;28;20503;-62
2023/06/04 12:22:32;;;;;;;4.23;3.30;;;29.00;1.00;;;;;;5119271;28;20459;-61
2023/06/04 12:25:02;;;;;;;4.27;3.97;;;29.40;1.00;;;;;;5119154;28;20489;-62
2023/06/04 12:27:31;;;;;;;5.63;3.93;;;29.70;1.00;;;;;;5118613;28;20482;-60
2023/06/04 12:29:59;;;;;;;4.90;4.40;;;29.10;1.00;;;;;;5118257;28;20507;-61
2023/06/04 12:32:26;;;;;;;5.07;4.67;;;28.50;1.00;;;;;;5118390;28;20456;-61
2023/06/04 12:34:54;;;;;;;4.30;3.90;;;27.80;1.00;;;;;;5118320;28;20455;-60
2023/06/04 12:37:22;;;;;;;4.00;3.70;;;28.00;1.00;;;;;;5119683;28;20465;-61
2023/06/04 12:39:50;;;;;;;4.07;3.77;;;28.90;1.00;;;;;;5119220;28;20463;-62
2023/06/04 12:42:20;;;;;;;3.80;3.50;;;28.80;1.00;;;;;;5119790;28;20459;-62
2023/06/04 12:44:47;;;;;;;4.50;3.77;;;28.30;1.00;;;;;;5119825;28;20548;-61
2023/06/04 12:47:14;;;;;;;4.90;3.90;;;28.50;1.00;;;;;;5119391;28;20455;-61
2023/06/04 12:49:41;;;;;;;4.70;3.93;;;28.90;1.00;;;;;;5119206;28;20557;-59
2023/06/04 12:52:13;;;;;;;3.70;3.40;;;29.10;1.00;;;;;;5114868;27;20497;-61
2023/06/04 12:54:41;;;;;;;3.70;3.40;;;29.60;1.00;;;;;;5110620;27;20463;-62
2023/06/04 12:57:08;;;;;;;4.40;4.00;;;29.90;1.00;;;;;;5115862;28;20459;-64
2023/06/04 12:59:36;;;;;;;4.07;3.67;;;29.40;1.00;;;;;;5117811;28;20856;-61